Terminal Aerodrome Forecast
Issued by NWS Cleveland, OH

Home | Current Version | Previous Version | Text Only | Print | Product List | Glossary Off
Versions: 1 2 3 4 5 6 7 8 9 10 11 12 13 14 15 16 17 18 19 20 21 22 23 24 25 26 27 28

000
FTUS41 KCLE 161000 AAB
TAFCLE
TAF AMD
KCLE 161042Z 1611/1712 24003KT 5SM BR SCT004 OVC025
      TEMPO 1611/1613 3SM BR BKN004
     FM161400 36006KT P6SM BKN025 OVC045
     FM161600 36006KT P6SM SCT025 BKN045
     FM161800 35008KT P6SM SCT045
     FM170100 31004KT P6SM SKC=

USA.gov is the U.S. government's official web portal to all federal, state and local government web resources and services.